WEATHER DATA

YESTERDAY
Time Temp. Dewp. Hum. Wind dir Wind speed Wind gust Bar. 1h Prec. 24h Prec.
00:03 13.5 9.9 79 90 0.3 0.8 1020.3 0.0000 0.0000
00:13 13.5 9.9 79 90 0.3 0.8 1020.1 0.0000 0.0000
00:23 13.6 10 79 90 0.3 0.8 1020.3 0.0000 0.0000
00:33 13.7 9.9 78 90 0.3 0.8 1020.4 0.0000 0.0000
00:43 13.7 9.9 78 90 0.3 0.8 1020.3 0.0000 0.0000
00:54 13.7 9.7 77 90 0.3 0.8 1020 0.0000 0.0000
01:04 13.7 9.9 78 90 0.3 0.8 1019.9 0.0000 0.0000
01:13 13.7 9.9 78 90 0.3 0.8 1020 0.0000 0.0000
01:24 13.7 9.9 78 90 0.3 0.8 1020.2 0.0000 0.0000
01:34 13.7 9.7 77 90 0.3 0.8 1020.4 0.0000 0.0000
01:44 13.7 9.7 77 90 0.3 0.8 1020.4 0.0000 0.0000
01:54 13.7 9.7 77 90 0.3 0.8 1020.3 0.0000 0.0000
02:04 13.7 9.7 77 90 0.3 0.8 1020.4 0.0000 0.0000
02:14 13.8 9.6 76 90 0.3 0.8 1020.2 0.0000 0.0000
02:24 13.9 9.5 75 90 0.3 0.8 1020.1 0.0000 0.0000
02:34 13.9 9.5 75 90 0.3 0.8 1019.9 0.0000 0.0000
02:45 13.8 9.5 75 90 0.3 0.8 1019.8 0.0000 0.0000
02:55 13.7 9.6 76 90 0.3 0.8 1019.7 0.0000 0.0000
03:04 13.6 9.5 76 90 0.3 0.8 1019.7 0.0000 0.0000
03:15 13.4 9.5 77 90 0.3 0.8 1019.7 0.0000 0.0000
03:25 13.4 9.5 77 90 0.3 0.8 1019.7 0.0000 0.0000
03:35 13.3 9.5 78 90 0.3 0.8 1019.5 0.0000 0.0000
03:45 13.2 9.5 78 90 0.3 0.8 1019.6 0.0000 0.0000
03:56 13.1 9.5 79 90 0.3 0.8 1019.7 0.0000 0.0000
04:05 13 9.4 79 90 0.3 0.8 1019.6 0.0000 0.0000
04:15 13 9.4 79 90 0.3 0.8 1019.6 0.0000 0.0000
04:26 12.9 9.4 79 90 0.3 0.8 1019.5 0.0000 0.0000
04:36 12.9 9.4 79 90 0.3 0.8 1019.3 0.0000 0.0000
04:46 12.8 9.4 80 90 0.3 0.8 1019.3 0.0000 0.0000
04:56 12.7 9.3 80 90 0.3 0.8 1019.3 0.0000 0.0000
05:06 12.7 9.2 79 90 0.3 0.8 1019.3 0.0000 0.0000
05:16 12.6 9.1 79 90 0.3 0.8 1019.2 0.0000 0.0000
05:26 12.5 9 79 90 0.3 0.8 1019.1 0.0000 0.0000
05:36 12.5 9 79 90 0.3 0.8 1019.2 0.0000 0.0000
05:47 12.5 9 79 90 0.3 0.8 1019.1 0.0000 0.0000
05:56 12.5 9 79 90 0.3 0.8 1019.4 0.0000 0.0000
06:06 12.5 9 79 90 0.3 0.8 1019.3 0.0000 0.0000
06:17 12.6 9.1 79 90 0.3 0.8 1019.3 0.0000 0.0000
06:27 12.7 9.3 80 90 0.3 0.8 1019.2 0.0000 0.0000
06:37 12.9 9.5 80 90 0.3 0.8 1019 0.0000 0.0000
06:47 13 9.6 80 90 0.3 0.8 1018.9 0.0000 0.0000
06:57 13.1 9.7 80 90 0.3 0.8 1018.8 0.0000 0.0000
07:07 13.2 9.6 79 90 0.3 0.8 1018.9 0.0000 0.0000
07:17 13.4 9.8 79 90 0.3 0.8 1019 0.0000 0.0000
07:28 13.4 9.8 79 90 0.3 0.8 1018.8 0.0000 0.0000
07:38 13.5 9.9 79 90 0.3 0.8 1018.6 0.0000 0.0000
07:47 13.6 10 79 90 0.3 0.8 1019 0.0000 0.0000
07:57 13.6 10 79 90 0.3 0.8 1018.5 0.0000 0.0000
08:08 13.7 10.1 79 90 0.3 0.8 1018.4 0.0000 0.0000
08:18 13.9 10.5 80 90 0.3 0.8 1018.5 0.0000 0.0000
08:28 14 10.6 80 90 0.3 0.8 1018.5 0.0000 0.0000
08:38 14.1 10.7 80 90 0.3 0.8 1018.5 0.0000 0.0000
08:48 14.3 10.9 80 90 0.3 0.8 1018.4 0.0000 0.0000
08:58 14.4 11 80 90 0.3 0.8 1018.4 0.0000 0.0000
09:08 14.5 11.1 80 90 0.3 0.8 1018.6 0.0000 0.0000
09:19 14.6 11.2 80 90 0.3 0.8 1018.8 0.0000 0.0000
09:29 14.7 11.3 80 90 0.3 0.8 1018.6 0.0000 0.0000
09:39 14.8 11.4 80 90 0.3 0.8 1018.6 0.0000 0.0000
09:49 15 11.6 80 90 0.3 0.8 1018.5 0.0000 0.0000
09:59 15.2 11.8 80 90 0.3 0.8 1018.6 0.0000 0.0000
10:09 15.4 11.8 79 90 0.3 0.8 1018.5 0.0000 0.0000
10:19 15.7 12.3 80 90 0.3 0.8 1018.3 0.0000 0.0000
10:30 16 12.4 79 90 0.3 0.8 1018.2 0.0000 0.0000
10:40 16.4 12.8 79 90 0.3 0.8 1018.1 0.0000 0.0000
10:49 16.9 13 78 90 0.3 0.8 1017.9 0.0000 0.0000
10:59 17.5 13.4 77 90 0.3 0.8 1017.8 0.0000 0.0000
11:10 18 13.7 76 90 0.3 0.8 1017.8 0.0000 0.0000
11:20 18.5 14.2 76 90 0.3 0.8 1017.7 0.0000 0.0000
11:30 18.8 14.1 74 90 0.3 0.8 1017.6 0.0000 0.0000
11:40 18.9 14 73 90 0.3 0.8 1017.6 0.0000 0.0000
11:50 19.1 14.2 73 90 0.3 0.8 1017.5 0.0000 0.0000
12:00 19.4 14.4 73 90 0.3 0.8 1017.4 0.0000 0.0000
12:10 19.4 14 71 90 0.3 0.8 1017.4 0.0000 0.0000
12:21 19.3 13.9 71 90 0.3 0.8 1017.3 0.0000 0.0000
12:31 19.4 14 71 90 0.3 0.8 1017.1 0.0000 0.0000
12:40 19.6 14.2 71 90 0.3 0.8 1017 0.0000 0.0000
12:51 19.8 14.4 71 90 0.3 0.8 1016.8 0.0000 0.0000
13:01 19.6 14.2 71 90 0.3 0.8 1016.8 0.0000 0.0000
13:11 19.4 14.2 72 90 0.3 0.8 1016.6 0.0000 0.0000
13:21 19 13.8 72 90 0.3 0.8 1016.4 0.0000 0.0000
13:32 18.7 13.8 73 90 0.3 0.8 1016.4 0.0000 0.0000
13:41 18.6 13.9 74 90 0.3 0.8 1016.3 0.0000 0.0000
13:51 18.4 13.7 74 90 0.3 0.8 1016.1 0.0000 0.0000
14:01 18.1 13.6 75 90 0.3 0.8 1015.8 0.0000 0.0000
14:12 18.1 13.6 75 90 0.3 0.8 1015.5 0.0000 0.0000
14:22 18 13.7 76 90 0.3 0.8 1015.2 0.0000 0.0000
14:32 17.9 13.6 76 90 0.3 0.8 1015.2 0.0000 0.0000
14:42 17.9 13.8 77 90 0.3 0.8 1014.8 0.0000 0.0000
14:52 18.1 14 77 90 0.3 0.8 1014.6 0.0000 0.0000
15:03 18.3 14.2 77 90 0.3 0.8 1014.4 0.0000 0.0000
15:13 18.5 14.4 77 90 0.3 0.8 1014.2 0.0000 0.0000
15:22 18.5 14.4 77 90 0.3 0.8 1014 0.0000 0.0000
15:32 18.4 14.3 77 90 0.3 0.8 1013.7 0.0000 0.0000
15:43 18.3 14.2 77 90 0.3 0.8 1013.4 0.0000 0.0000
15:53 18.3 14.2 77 90 0.3 0.8 1013.3 0.0000 0.0000
16:03 18.3 14.2 77 90 0.3 0.8 1013 0.0000 0.0000
16:13 18.3 14.4 78 90 0.3 0.8 1012.8 0.0000 0.0000
16:23 18.3 14.4 78 90 0.3 0.8 1012.5 0.0000 0.0000
16:33 18.3 14.4 78 90 0.3 0.8 1012.2 0.0000 0.0000
16:43 18.4 14.5 78 90 0.3 0.8 1012 0.0000 0.0000
16:54 18.5 14.6 78 90 0.3 0.8 1011.5 0.0000 0.0000
17:04 18.6 14.7 78 90 0.3 0.8 1011.4 0.0000 0.0000
17:14 18.6 14.5 77 90 0.3 0.8 1011.2 0.0000 0.0000
17:24 18.5 14.4 77 90 0.3 0.8 1010.8 0.0000 0.0000
17:34 18.4 14.3 77 90 0.3 0.8 1010.3 0.0000 0.0000
17:44 18.1 14 77 90 0.3 0.8 1010.2 0.0000 0.0000
17:54 18 13.9 77 90 0.3 0.8 1009.9 0.0000 0.0000
18:05 17.9 13.8 77 90 0.3 0.8 1009.7 0.0000 0.0000
18:15 17.7 13.8 78 90 0.3 0.8 1009.2 0.0000 0.0000
18:25 17.6 13.7 78 90 0.3 0.8 1009 0.0000 0.0000
18:35 17.4 13.5 78 90 0.3 0.8 1008.7 0.0000 0.0000
18:45 17.4 13.5 78 90 0.3 0.8 1008.6 0.0000 0.0000
18:55 17.2 13.3 78 90 0.3 0.8 1008.1 0.0000 0.0000
19:05 17.1 13.2 78 90 0.3 0.8 1008 0.0000 0.0000
19:15 17 13.3 79 90 0.3 0.8 1007.6 0.0000 0.0000
19:26 16.9 13.2 79 90 0.3 0.8 1007.4 0.0000 0.0000
19:36 16.8 13.1 79 90 0.3 0.8 1007 0.0000 0.0000
19:45 16.8 13.1 79 90 0.3 0.8 1006.9 0.0000 0.0000
19:56 16.7 13 79 90 0.3 0.8 1006.7 0.0000 0.0000
20:06 16.7 13 79 90 0.3 0.8 1006.5 0.0000 0.0000
20:16 16.6 12.9 79 90 0.3 0.8 1006.4 0.0000 0.0000
20:26 16.5 12.8 79 90 0.3 0.8 1006 0.0000 0.0000
20:37 16.4 12.8 79 90 0.3 0.8 1005.8 0.0000 0.0000
20:47 16.2 12.6 79 90 0.3 0.8 1005.7 0.0000 0.0000
20:56 16 12.4 79 90 0.3 0.8 1005.4 0.0000 0.0000
21:07 15.8 12.4 80 90 0.3 0.8 1005.2 0.0000 0.0000
21:17 15.6 12.2 80 90 0.3 0.8 1005.5 0.0000 0.0000
21:27 15.5 12.3 81 90 0.3 0.8 1004.9 0.0000 0.0000
21:37 15.4 12.2 81 90 0.3 0.8 1005.2 0.0000 0.0000
21:48 15.3 12.1 81 90 0.3 0.8 1005.3 0.0000 0.0000
21:58 15.4 12.3 82 90 0.3 0.8 1005.6 0.0000 0.0000
22:07 15.4 12.3 82 90 0.3 0.8 1005.2 0.0000 0.0000
22:17 15.5 12.4 82 90 0.3 0.8 1005.2 0.0000 0.0000
22:28 15.6 12.7 83 90 0.3 0.8 1005 0.0000 0.0000
22:38 15.6 12.7 83 90 0.3 0.8 1005 0.0000 0.0000
22:48 15.7 12.8 83 90 0.3 0.8 1005.1 0.0000 0.0000
22:58 15.8 13.1 84 90 0.3 0.8 1007.1 0.0000 0.0000
23:08 16.6 14.1 85 90 0.3 0.8 1007.6 0.0000 0.0000
23:18 16.6 13.7 83 90 0.3 0.8 1007.5 0.0000 0.0000
23:28 16.5 13.6 83 90 0.3 0.8 1007.5 0.0000 0.0000
23:39 16.5 13.6 83 90 0.3 0.8 1008.1 0.0000 0.0000
23:49 16.4 13.5 83 90 0.3 0.8 1008.2 0.0000 0.0000
23:58 16.3 13.4 83 90 0.3 0.8 1008.6 0.0000 0.0000

DAY STATISTIC

2018-09-23
TEMPERATURE
AVERAGE
15.8
HIGH
19.8
12:51
LOW
12.5
05:26
PRESSURE
AVERAGE
1014.8
HIGH
1020.4
00:33
LOW
1004.9
21:27
DEWPOINT
AVERAGE
12.0
HIGH
14.7
17:04
LOW
9.0
05:26
HUMIDITY
AVERAGE
78
HIGH
85
23:08
LOW
71
12:10
WIND SPEED
AVERAGE
0.3
HIGH
0.3
00:03
WIND GUST
AVERAGE
0.8
HIGH
0.8
00:03
WIND DIRECTION
PREVAILING
E
100%
N
0.0
NE
0.0
E
100.0
SE
0.0
S
0.0
SW
0.0
W
0.0
NW
0.0
PRECIPITATION
RAIN HOUR
0.0
RAIN DAY
0.0
TEMPERATURE (°C)
LOW
12.5
HIGH
19.8
AVERAGE
15.8
PRESSURE (hpa)
LOW
1004.9
HIGH
1020.4
AVERAGE
1014.8
DEVICE